createdAt,value
2019-05-23T00:01:21.198Z,9.25
2019-05-23T00:03:52.159Z,9.10
2019-05-23T00:06:23.613Z,8.20
2019-05-23T00:08:55.140Z,7.97
2019-05-23T00:11:27.436Z,8.17
2019-05-23T00:16:30.376Z,7.78
2019-05-23T00:19:02.553Z,7.35
2019-05-23T00:21:34.404Z,7.28
2019-05-23T00:24:05.532Z,6.90
2019-05-23T00:26:37.548Z,6.90
2019-05-23T00:29:10.663Z,6.45
2019-05-23T00:31:43.690Z,6.70
2019-05-23T00:34:15.371Z,6.62
2019-05-23T00:36:47.659Z,6.72
2019-05-23T00:41:50.340Z,6.35
2019-05-23T00:44:21.425Z,5.85
2019-05-23T00:46:52.612Z,6.03
2019-05-23T00:49:23.602Z,6.00
2019-05-23T00:51:54.842Z,5.62
2019-05-23T00:54:26.404Z,6.08
2019-05-23T00:56:58.496Z,5.70
2019-05-23T00:59:29.657Z,5.78
2019-05-23T01:02:01.556Z,5.05
2019-05-23T01:04:32.909Z,5.10
2019-05-23T01:07:04.279Z,5.33
2019-05-23T01:09:35.099Z,5.13
2019-05-23T01:12:07.266Z,5.20
2019-05-23T01:14:39.149Z,5.62
2019-05-23T01:17:10.589Z,5.15
2019-05-23T01:19:42.215Z,6.60
2019-05-23T01:22:14.232Z,6.33
2019-05-23T01:27:16.369Z,6.55
2019-05-23T01:29:49.776Z,7.08
2019-05-23T01:34:49.552Z,7.37
2019-05-23T01:37:21.412Z,6.92
2019-05-23T01:39:52.548Z,6.53
2019-05-23T01:42:24.710Z,7.00
2019-05-23T01:47:26.017Z,6.78
2019-05-23T01:49:58.283Z,6.65
2019-05-23T01:55:00.454Z,6.67
2019-05-23T01:57:31.755Z,7.40
2019-05-23T02:00:10.608Z,7.07
2019-05-23T02:02:37.423Z,6.75
2019-05-23T02:05:10.350Z,6.78
2019-05-23T02:07:41.836Z,6.40
2019-05-23T02:10:14.024Z,6.90
2019-05-23T02:15:15.630Z,6.72
2019-05-23T02:17:46.973Z,7.05
2019-05-23T02:20:19.540Z,7.27
2019-05-23T02:22:50.690Z,7.17
2019-05-23T02:25:23.105Z,7.05
2019-05-23T02:27:55.275Z,7.35
2019-05-23T02:32:57.704Z,6.62
2019-05-23T02:35:29.104Z,6.85
2019-05-23T02:38:01.523Z,6.97
2019-05-23T02:40:33.794Z,6.42
2019-05-23T02:45:37.274Z,6.85
2019-05-23T02:48:09.484Z,6.65
2019-05-23T02:53:15.949Z,7.10
2019-05-23T02:55:47.614Z,6.83
2019-05-23T02:58:21.166Z,7.25
2019-05-23T03:00:56.136Z,6.72
2019-05-23T03:03:29.292Z,6.00
2019-05-23T03:06:01.699Z,6.40
2019-05-23T03:08:33.376Z,6.30
2019-05-23T03:11:08.101Z,6.30
2019-05-23T03:13:39.551Z,6.53
2019-05-23T03:16:16.833Z,6.15
2019-05-23T03:18:50.283Z,6.50
2019-05-23T03:21:21.201Z,5.85
2019-05-23T03:23:53.330Z,6.25
2019-05-23T03:28:55.736Z,6.22
2019-05-23T03:31:31.672Z,6.63
2019-05-23T03:34:00.359Z,6.80
2019-05-23T03:36:31.825Z,6.93
2019-05-23T03:39:04.069Z,6.80
2019-05-23T03:41:35.968Z,6.03
2019-05-23T03:44:08.382Z,6.42
2019-05-23T03:46:40.733Z,6.50
2019-05-23T03:49:11.936Z,6.95
2019-05-23T03:51:43.097Z,6.72
2019-05-23T03:54:15.438Z,6.28
2019-05-23T03:56:46.384Z,6.47
2019-05-23T03:59:17.722Z,6.35
2019-05-23T04:01:49.903Z,6.23
2019-05-23T04:04:22.123Z,6.28
2019-05-23T04:06:54.075Z,6.67
2019-05-23T04:09:25.773Z,6.58
2019-05-23T04:11:57.296Z,6.37
2019-05-23T04:14:29.241Z,6.62
2019-05-23T04:17:00.234Z,7.03
2019-05-23T04:19:31.274Z,7.12
2019-05-23T04:22:02.401Z,6.75
2019-05-23T04:24:34.725Z,7.28
2019-05-23T04:27:06.284Z,7.30
2019-05-23T04:29:37.167Z,6.72
2019-05-23T04:32:09.348Z,6.72
2019-05-23T04:34:40.702Z,6.67
2019-05-23T04:37:11.701Z,6.97
2019-05-23T04:39:42.600Z,6.62
2019-05-23T04:42:13.792Z,6.40
2019-05-23T04:44:44.902Z,7.03
2019-05-23T04:47:16.014Z,6.87
2019-05-23T04:49:46.921Z,6.70
2019-05-23T04:52:18.212Z,7.62
2019-05-23T04:54:49.201Z,7.50
2019-05-23T04:57:20.674Z,7.15
2019-05-23T04:59:51.684Z,7.58
2019-05-23T05:02:26.328Z,7.53
2019-05-23T05:04:55.025Z,7.58
2019-05-23T05:07:26.037Z,7.20
2019-05-23T05:09:56.932Z,7.33
2019-05-23T05:12:27.979Z,7.70
2019-05-23T05:14:58.843Z,7.72
2019-05-23T05:17:29.773Z,7.35
2019-05-23T05:20:00.722Z,7.80
2019-05-23T05:22:31.648Z,7.83
2019-05-23T05:25:02.676Z,7.60
2019-05-23T05:27:33.636Z,7.67
2019-05-23T05:30:04.924Z,8.20
2019-05-23T05:32:44.543Z,8.23
2019-05-23T05:35:08.808Z,7.60
2019-05-23T05:37:39.629Z,8.38
2019-05-23T05:40:11.219Z,7.90
2019-05-23T05:42:43.165Z,7.90
2019-05-23T05:47:44.564Z,8.35
2019-05-23T05:50:15.825Z,7.85
2019-05-23T05:52:46.879Z,7.90
2019-05-23T05:55:17.736Z,9.23
2019-05-23T05:57:48.766Z,8.05
2019-05-23T06:00:21.258Z,9.18
2019-05-23T06:03:03.776Z,8.20
2019-05-23T06:05:25.639Z,9.30
2019-05-23T06:10:27.383Z,8.15
2019-05-23T06:12:58.309Z,7.85
2019-05-23T06:15:29.330Z,8.35
2019-05-23T06:18:00.369Z,8.25
2019-05-23T06:20:31.725Z,8.15
2019-05-23T06:23:02.955Z,7.83
2019-05-23T06:25:34.125Z,9.10
2019-05-23T06:28:05.676Z,8.43
2019-05-23T06:30:37.959Z,8.00
2019-05-23T06:33:22.490Z,7.90
2019-05-23T06:35:42.179Z,8.05
2019-05-23T06:38:13.178Z,8.07
2019-05-23T06:40:44.241Z,7.85
2019-05-23T06:43:15.345Z,8.53
2019-05-23T06:45:47.034Z,7.80
2019-05-23T06:48:18.035Z,7.78
2019-05-23T06:50:50.766Z,8.60
2019-05-23T06:53:21.179Z,7.70
2019-05-23T06:55:52.487Z,7.22
2019-05-23T06:58:23.925Z,7.47
2019-05-23T07:00:55.460Z,7.15
2019-05-23T07:03:40.680Z,7.55
2019-05-23T07:05:59.267Z,7.33
2019-05-23T07:08:32.199Z,7.65
2019-05-23T07:11:03.292Z,6.83
2019-05-23T07:13:35.575Z,7.67
2019-05-23T07:16:07.164Z,7.70
2019-05-23T07:18:38.086Z,7.40
2019-05-23T07:21:09.647Z,7.08
2019-05-23T07:23:40.658Z,6.87
2019-05-23T07:26:11.950Z,7.10
2019-05-23T07:28:43.156Z,7.12
2019-05-23T07:31:14.884Z,6.77
2019-05-23T07:34:00.506Z,7.05
2019-05-23T07:36:18.263Z,6.35
2019-05-23T07:38:49.313Z,7.13
2019-05-23T07:41:20.489Z,6.45
2019-05-23T07:43:51.519Z,6.60
2019-05-23T07:46:22.619Z,6.92
2019-05-23T07:48:53.741Z,7.53
2019-05-23T07:51:29.670Z,6.73
2019-05-23T07:54:00.663Z,6.47
2019-05-23T07:56:32.956Z,6.75
2019-05-23T07:59:03.793Z,7.67
2019-05-23T08:01:36.136Z,6.53
2019-05-23T08:04:20.668Z,6.83
2019-05-23T08:06:39.973Z,7.00
2019-05-23T08:09:12.194Z,6.83
2019-05-23T08:11:43.216Z,6.90
2019-05-23T08:14:14.995Z,6.65
2019-05-23T08:16:46.322Z,7.05
2019-05-23T08:19:19.608Z,6.37
2019-05-23T08:21:49.644Z,6.65
2019-05-23T08:24:21.449Z,6.03
2019-05-23T08:26:52.390Z,6.55
2019-05-23T08:29:26.087Z,6.67
2019-05-23T08:31:55.796Z,6.05
2019-05-23T08:34:40.764Z,6.50
2019-05-23T08:36:59.921Z,6.17
2019-05-23T08:39:32.153Z,6.12
2019-05-23T08:42:03.909Z,5.70
2019-05-23T08:44:35.080Z,5.90
2019-05-23T08:47:07.341Z,6.63
2019-05-23T08:49:38.440Z,5.67
2019-05-23T08:52:09.487Z,5.83
2019-05-23T08:54:40.914Z,5.75
2019-05-23T08:57:12.688Z,5.80
2019-05-23T08:59:43.942Z,5.55
2019-05-23T09:02:16.033Z,5.15
2019-05-23T09:05:03.316Z,5.45
2019-05-23T09:07:19.107Z,4.95
2019-05-23T09:09:50.936Z,5.47
2019-05-23T09:12:21.899Z,4.67
2019-05-23T09:14:52.920Z,4.78
2019-05-23T09:17:23.935Z,5.00
2019-05-23T09:19:54.735Z,6.05
2019-05-23T09:22:25.924Z,4.83
2019-05-23T09:24:56.897Z,5.10
2019-05-23T09:27:27.825Z,5.37
2019-05-23T09:29:59.162Z,4.95
2019-05-23T09:32:30.262Z,5.28
2019-05-23T09:35:01.392Z,5.10
2019-05-23T09:37:32.821Z,5.33
2019-05-23T09:40:04.070Z,5.08
2019-05-23T09:42:35.083Z,5.15
2019-05-23T09:45:07.224Z,4.73
2019-05-23T09:47:38.319Z,4.90
2019-05-23T09:50:11.784Z,4.80
2019-05-23T09:52:42.775Z,5.00
2019-05-23T09:55:13.896Z,5.22
2019-05-23T09:57:45.011Z,4.60
2019-05-23T10:00:17.335Z,4.70
2019-05-23T10:02:48.426Z,5.17
2019-05-23T10:05:30.961Z,7.37
2019-05-23T10:07:51.791Z,5.78
2019-05-23T10:10:23.027Z,6.47
2019-05-23T10:12:53.828Z,6.70
2019-05-23T10:15:24.522Z,6.28
2019-05-23T10:17:55.562Z,6.17
2019-05-23T10:20:28.926Z,6.00
2019-05-23T10:22:59.739Z,5.70
2019-05-23T10:25:30.671Z,4.70
2019-05-23T10:28:01.737Z,4.62
2019-05-23T10:30:33.277Z,4.80
2019-05-23T10:33:10.961Z,4.92
2019-05-23T10:38:06.951Z,3.60
2019-05-23T10:40:37.979Z,3.95
2019-05-23T10:43:09.089Z,3.02
2019-05-23T10:45:40.171Z,3.08
2019-05-23T10:48:11.468Z,3.50
2019-05-23T10:50:45.075Z,2.90
2019-05-23T10:55:44.744Z,2.98
2019-05-23T10:58:17.246Z,3.47
2019-05-23T11:00:49.006Z,3.60
2019-05-23T11:03:20.016Z,3.77
2019-05-23T11:05:50.993Z,5.47
2019-05-23T11:08:27.613Z,7.85
2019-05-23T11:10:54.836Z,6.55
2019-05-23T11:13:25.937Z,6.62
2019-05-23T11:15:57.386Z,5.60
2019-05-23T11:18:28.427Z,5.87
2019-05-23T11:20:59.410Z,5.90
2019-05-23T11:23:31.721Z,6.70
2019-05-23T11:26:03.150Z,6.03
2019-05-23T11:28:35.582Z,6.20
2019-05-23T11:31:07.899Z,4.78
2019-05-23T11:33:39.187Z,5.05
2019-05-23T11:36:11.537Z,5.37
2019-05-23T11:41:13.035Z,6.00
2019-05-23T11:43:44.351Z,6.37
2019-05-23T11:46:15.196Z,7.17
2019-05-23T11:48:46.539Z,3.95
2019-05-23T11:51:18.367Z,4.67
2019-05-23T11:54:05.970Z,5.55
2019-05-23T11:56:21.700Z,4.83
2019-05-23T11:58:52.783Z,4.00
2019-05-23T12:01:24.992Z,3.72
2019-05-23T12:06:28.429Z,3.90
2019-05-23T12:11:29.631Z,3.80
2019-05-23T12:14:00.604Z,4.80
2019-05-23T12:16:31.686Z,3.95
2019-05-23T12:19:02.664Z,3.80
2019-05-23T12:21:33.957Z,4.67
2019-05-23T12:24:04.963Z,3.55
2019-05-23T12:26:36.023Z,5.08
2019-05-23T12:29:07.043Z,5.10
2019-05-23T12:31:38.025Z,3.67
2019-05-23T12:34:08.938Z,4.45
2019-05-23T12:36:40.368Z,4.40
2019-05-23T12:39:11.723Z,2.53
2019-05-23T12:41:44.157Z,2.67
2019-05-23T12:44:17.510Z,3.27
2019-05-23T12:49:18.633Z,3.00
2019-05-23T12:54:20.113Z,2.72
2019-05-23T12:56:51.515Z,2.65
2019-05-23T12:59:22.752Z,3.10
2019-05-23T13:01:54.797Z,2.98
2019-05-23T13:04:25.724Z,3.30
2019-05-23T13:06:56.875Z,3.00
2019-05-23T13:09:28.487Z,4.17
2019-05-23T13:11:59.475Z,4.08
2019-05-23T13:14:30.654Z,4.53
2019-05-23T13:17:01.945Z,4.40
2019-05-23T13:19:33.024Z,4.40
2019-05-23T13:22:04.869Z,4.15
2019-05-23T13:24:51.305Z,4.35
2019-05-23T13:27:08.388Z,3.95
2019-05-23T13:29:39.636Z,3.83
2019-05-23T13:32:10.680Z,4.60
2019-05-23T13:34:41.715Z,3.87
2019-05-23T20:05:34.863Z,10.40
2019-05-23T20:08:06.261Z,11.70
2019-05-23T20:10:38.000Z,10.50
2019-05-23T20:13:08.858Z,10.43
2019-05-23T20:15:39.902Z,10.25
2019-05-23T20:18:12.007Z,10.45
2019-05-23T20:20:42.824Z,10.68
2019-05-23T20:23:15.794Z,12.40
2019-05-23T20:25:46.075Z,11.63
2019-05-23T20:28:17.502Z,12.10
2019-05-23T20:30:51.020Z,12.25
2019-05-23T20:33:21.968Z,13.20
2019-05-23T20:35:52.898Z,12.28
2019-05-23T20:38:24.424Z,12.03
2019-05-23T20:40:55.548Z,11.77
2019-05-23T20:43:26.763Z,11.93
2019-05-23T20:45:57.689Z,11.10
2019-05-23T20:48:28.637Z,12.30
2019-05-23T20:50:59.370Z,11.80
2019-05-23T20:53:30.478Z,10.80
2019-05-23T20:56:01.477Z,9.60
2019-05-23T20:58:32.544Z,9.15
2019-05-23T21:01:05.113Z,8.73
2019-05-23T21:03:36.576Z,9.48
2019-05-23T21:06:07.710Z,9.47
2019-05-23T21:08:38.628Z,9.33
2019-05-23T21:11:09.501Z,9.55
2019-05-23T21:13:40.818Z,8.55
2019-05-23T21:16:11.728Z,9.60
2019-05-23T21:18:42.634Z,9.38
2019-05-23T21:21:13.647Z,9.70
2019-05-23T21:23:44.479Z,10.20
2019-05-23T21:26:16.345Z,9.53
2019-05-23T21:28:47.674Z,10.40
2019-05-23T21:31:19.875Z,11.43
2019-05-23T21:33:50.740Z,10.38
2019-05-23T21:36:21.620Z,11.08
2019-05-23T21:38:52.681Z,11.28
2019-05-23T21:41:23.652Z,11.60
2019-05-23T21:43:56.237Z,11.35
2019-05-23T21:46:27.295Z,11.65
2019-05-23T21:48:58.190Z,11.83
2019-05-23T21:51:29.292Z,11.60
2019-05-23T21:54:00.267Z,11.88
2019-05-23T21:56:31.330Z,12.98
2019-05-23T21:59:02.278Z,13.68
2019-05-23T22:01:34.484Z,14.50
2019-05-23T22:04:06.604Z,15.43
2019-05-23T22:06:38.680Z,16.00
2019-05-23T22:09:11.382Z,15.35
2019-05-23T22:11:42.304Z,14.65
2019-05-23T22:14:13.280Z,14.30
2019-05-23T22:16:44.281Z,13.80
2019-05-23T22:19:16.770Z,13.00
2019-05-23T22:21:47.658Z,13.10
2019-05-23T22:24:20.053Z,11.97
2019-05-23T22:29:21.373Z,13.38
2019-05-23T22:31:55.831Z,11.40
2019-05-23T22:34:25.681Z,11.38
2019-05-23T22:36:56.772Z,11.95
2019-05-23T22:39:27.821Z,12.30
2019-05-23T22:41:59.649Z,11.60
2019-05-23T22:44:30.687Z,11.68
2019-05-23T22:47:01.754Z,11.65
2019-05-23T22:49:32.439Z,11.68
2019-05-23T22:52:03.685Z,11.90
2019-05-23T22:54:34.666Z,11.65
2019-05-23T22:57:05.706Z,11.85
2019-05-23T22:59:36.596Z,11.53
2019-05-23T23:02:08.690Z,11.53
2019-05-23T23:04:39.511Z,11.83
2019-05-23T23:07:10.407Z,11.85
2019-05-23T23:09:41.790Z,11.65
2019-05-23T23:12:12.653Z,11.65
2019-05-23T23:14:43.510Z,11.33
2019-05-23T23:17:14.605Z,11.15
2019-05-23T23:19:45.537Z,10.45
2019-05-23T23:22:16.292Z,11.70
2019-05-23T23:24:47.074Z,11.38
2019-05-23T23:27:17.998Z,10.30
2019-05-23T23:29:49.025Z,11.18
2019-05-23T23:32:20.108Z,10.90
2019-05-23T23:34:51.090Z,10.35
2019-05-23T23:37:21.872Z,9.90
2019-05-23T23:39:52.710Z,9.93
2019-05-23T23:42:23.650Z,10.50
2019-05-23T23:44:54.256Z,9.88
2019-05-23T23:47:26.421Z,9.95
2019-05-23T23:49:58.810Z,9.45
2019-05-23T23:55:01.950Z,10.82
2019-05-23T23:57:34.070Z,11.25
